sensor_id;sensor_type;location;lat;lon;timestamp;P1;durP1;ratioP1;P2;durP2;ratioP2
77598;SDS011;66758;52.078;5.070;2024-03-22T00:01:08;49.67;;;22.67;;
77598;SDS011;66758;52.078;5.070;2024-03-22T00:03:33;49.07;;;22.50;;
77598;SDS011;66758;52.078;5.070;2024-03-22T00:05:59;46.53;;;21.27;;
77598;SDS011;66758;52.078;5.070;2024-03-22T00:08:24;43.20;;;22.73;;
77598;SDS011;66758;52.078;5.070;2024-03-22T00:10:49;44.80;;;21.87;;
77598;SDS011;66758;52.078;5.070;2024-03-22T00:13:15;50.13;;;22.57;;
77598;SDS011;66758;52.078;5.070;2024-03-22T00:15:40;45.93;;;23.20;;
77598;SDS011;66758;52.078;5.070;2024-03-22T00:18:08;47.55;;;22.02;;
77598;SDS011;66758;52.078;5.070;2024-03-22T00:20:34;48.78;;;23.30;;
77598;SDS011;66758;52.078;5.070;2024-03-22T00:22:59;46.53;;;21.47;;
77598;SDS011;66758;52.078;5.070;2024-03-22T00:25:25;44.53;;;22.00;;
77598;SDS011;66758;52.078;5.070;2024-03-22T00:27:50;50.07;;;23.63;;
77598;SDS011;66758;52.078;5.070;2024-03-22T00:30:15;50.90;;;24.97;;
77598;SDS011;66758;52.078;5.070;2024-03-22T00:32:43;48.15;;;22.75;;
77598;SDS011;66758;52.078;5.070;2024-03-22T00:35:09;49.80;;;22.48;;
77598;SDS011;66758;52.078;5.070;2024-03-22T00:37:35;42.23;;;23.47;;
77598;SDS011;66758;52.078;5.070;2024-03-22T00:40:00;50.67;;;23.90;;
77598;SDS011;66758;52.078;5.070;2024-03-22T00:42:27;51.20;;;23.67;;
77598;SDS011;66758;52.078;5.070;2024-03-22T00:44:52;48.07;;;23.33;;
77598;SDS011;66758;52.078;5.070;2024-03-22T00:47:17;48.67;;;23.98;;
77598;SDS011;66758;52.078;5.070;2024-03-22T00:49:45;49.55;;;22.70;;
77598;SDS011;66758;52.078;5.070;2024-03-22T00:52:10;49.53;;;23.80;;
77598;SDS011;66758;52.078;5.070;2024-03-22T00:54:35;49.30;;;23.65;;
77598;SDS011;66758;52.078;5.070;2024-03-22T00:57:04;46.60;;;21.93;;
77598;SDS011;66758;52.078;5.070;2024-03-22T00:59:30;45.43;;;23.63;;
77598;SDS011;66758;52.078;5.070;2024-03-22T01:01:55;49.10;;;23.98;;
77598;SDS011;66758;52.078;5.070;2024-03-22T01:04:20;48.73;;;23.27;;
77598;SDS011;66758;52.078;5.070;2024-03-22T01:06:46;47.07;;;22.37;;
77598;SDS011;66758;52.078;5.070;2024-03-22T01:09:11;51.77;;;24.20;;
77598;SDS011;66758;52.078;5.070;2024-03-22T01:11:36;49.37;;;24.27;;
77598;SDS011;66758;52.078;5.070;2024-03-22T01:14:02;47.43;;;23.77;;
77598;SDS011;66758;52.078;5.070;2024-03-22T01:16:27;53.77;;;24.77;;
77598;SDS011;66758;52.078;5.070;2024-03-22T01:18:52;51.07;;;24.03;;
77598;SDS011;66758;52.078;5.070;2024-03-22T01:21:17;52.07;;;23.37;;
77598;SDS011;66758;52.078;5.070;2024-03-22T01:23:43;50.03;;;22.43;;
77598;SDS011;66758;52.078;5.070;2024-03-22T01:26:08;46.67;;;21.27;;
77598;SDS011;66758;52.078;5.070;2024-03-22T01:28:34;43.78;;;20.83;;
77598;SDS011;66758;52.078;5.070;2024-03-22T01:30:59;46.67;;;21.73;;
77598;SDS011;66758;52.078;5.070;2024-03-22T01:33:25;48.30;;;22.67;;
77598;SDS011;66758;52.078;5.070;2024-03-22T01:35:50;46.27;;;22.13;;
77598;SDS011;66758;52.078;5.070;2024-03-22T01:38:15;47.17;;;22.33;;
77598;SDS011;66758;52.078;5.070;2024-03-22T01:40:41;43.93;;;20.77;;
77598;SDS011;66758;52.078;5.070;2024-03-22T01:43:06;47.47;;;22.93;;
77598;SDS011;66758;52.078;5.070;2024-03-22T01:45:32;52.37;;;22.87;;
77598;SDS011;66758;52.078;5.070;2024-03-22T01:47:58;50.50;;;23.17;;
77598;SDS011;66758;52.078;5.070;2024-03-22T01:50:24;49.85;;;22.63;;
77598;SDS011;66758;52.078;5.070;2024-03-22T01:52:50;54.50;;;24.90;;
77598;SDS011;66758;52.078;5.070;2024-03-22T01:55:15;58.50;;;26.88;;
77598;SDS011;66758;52.078;5.070;2024-03-22T01:57:41;57.20;;;26.43;;
77598;SDS011;66758;52.078;5.070;2024-03-22T02:00:07;62.45;;;29.35;;
77598;SDS011;66758;52.078;5.070;2024-03-22T02:02:35;68.57;;;31.85;;
77598;SDS011;66758;52.078;5.070;2024-03-22T02:05:16;69.77;;;30.27;;
77598;SDS011;66758;52.078;5.070;2024-03-22T02:07:45;75.18;;;32.08;;
77598;SDS011;66758;52.078;5.070;2024-03-22T02:10:10;74.87;;;32.30;;
77598;SDS011;66758;52.078;5.070;2024-03-22T02:12:36;66.83;;;31.00;;
77598;SDS011;66758;52.078;5.070;2024-03-22T02:15:02;80.63;;;31.83;;
77598;SDS011;66758;52.078;5.070;2024-03-22T02:17:27;77.47;;;31.02;;
77598;SDS011;66758;52.078;5.070;2024-03-22T02:19:53;79.50;;;33.03;;
77598;SDS011;66758;52.078;5.070;2024-03-22T02:22:18;71.57;;;31.63;;
77598;SDS011;66758;52.078;5.070;2024-03-22T02:24:43;82.60;;;32.87;;
77598;SDS011;66758;52.078;5.070;2024-03-22T02:27:09;78.83;;;32.07;;
77598;SDS011;66758;52.078;5.070;2024-03-22T02:29:34;66.27;;;29.50;;
77598;SDS011;66758;52.078;5.070;2024-03-22T02:31:59;72.75;;;29.08;;
77598;SDS011;66758;52.078;5.070;2024-03-22T02:34:24;66.77;;;27.67;;
77598;SDS011;66758;52.078;5.070;2024-03-22T02:36:50;54.40;;;25.33;;
77598;SDS011;66758;52.078;5.070;2024-03-22T02:39:15;55.30;;;24.73;;
77598;SDS011;66758;52.078;5.070;2024-03-22T02:41:40;57.47;;;23.77;;
77598;SDS011;66758;52.078;5.070;2024-03-22T02:44:05;48.73;;;19.37;;
77598;SDS011;66758;52.078;5.070;2024-03-22T02:46:31;54.10;;;22.70;;
77598;SDS011;66758;52.078;5.070;2024-03-22T02:48:56;55.97;;;22.40;;
77598;SDS011;66758;52.078;5.070;2024-03-22T02:51:21;51.63;;;20.90;;
77598;SDS011;66758;52.078;5.070;2024-03-22T02:53:47;52.97;;;20.33;;
77598;SDS011;66758;52.078;5.070;2024-03-22T02:56:12;45.40;;;19.47;;
77598;SDS011;66758;52.078;5.070;2024-03-22T02:58:38;51.23;;;21.03;;
77598;SDS011;66758;52.078;5.070;2024-03-22T03:01:03;47.03;;;19.20;;
77598;SDS011;66758;52.078;5.070;2024-03-22T03:03:28;50.85;;;19.70;;
77598;SDS011;66758;52.078;5.070;2024-03-22T03:05:54;50.90;;;20.73;;
77598;SDS011;66758;52.078;5.070;2024-03-22T03:08:19;50.13;;;20.60;;
77598;SDS011;66758;52.078;5.070;2024-03-22T03:10:45;54.55;;;21.50;;
77598;SDS011;66758;52.078;5.070;2024-03-22T03:13:11;54.40;;;20.30;;
77598;SDS011;66758;52.078;5.070;2024-03-22T03:15:36;42.13;;;17.33;;
77598;SDS011;66758;52.078;5.070;2024-03-22T03:18:01;42.77;;;18.43;;
77598;SDS011;66758;52.078;5.070;2024-03-22T03:20:27;37.30;;;16.00;;
77598;SDS011;66758;52.078;5.070;2024-03-22T03:22:52;41.03;;;16.70;;
77598;SDS011;66758;52.078;5.070;2024-03-22T03:25:17;39.23;;;16.23;;
77598;SDS011;66758;52.078;5.070;2024-03-22T03:27:43;43.87;;;16.43;;
77598;SDS011;66758;52.078;5.070;2024-03-22T03:30:08;40.50;;;17.13;;
77598;SDS011;66758;52.078;5.070;2024-03-22T03:32:33;42.40;;;16.80;;
77598;SDS011;66758;52.078;5.070;2024-03-22T03:34:59;49.77;;;19.43;;
77598;SDS011;66758;52.078;5.070;2024-03-22T03:37:24;44.40;;;19.13;;
77598;SDS011;66758;52.078;5.070;2024-03-22T03:39:49;47.75;;;19.30;;
77598;SDS011;66758;52.078;5.070;2024-03-22T03:42:15;45.27;;;17.30;;
77598;SDS011;66758;52.078;5.070;2024-03-22T03:44:40;44.07;;;17.27;;
77598;SDS011;66758;52.078;5.070;2024-03-22T03:47:06;47.58;;;18.58;;
77598;SDS011;66758;52.078;5.070;2024-03-22T03:49:31;45.97;;;18.50;;
77598;SDS011;66758;52.078;5.070;2024-03-22T03:51:57;53.40;;;19.20;;
77598;SDS011;66758;52.078;5.070;2024-03-22T03:54:23;48.10;;;19.13;;
77598;SDS011;66758;52.078;5.070;2024-03-22T03:56:48;47.53;;;17.23;;
77598;SDS011;66758;52.078;5.070;2024-03-22T03:59:14;43.63;;;17.30;;
77598;SDS011;66758;52.078;5.070;2024-03-22T04:01:39;50.13;;;19.87;;
77598;SDS011;66758;52.078;5.070;2024-03-22T04:04:04;53.57;;;19.63;;
77598;SDS011;66758;52.078;5.070;2024-03-22T04:06:29;46.63;;;18.70;;
77598;SDS011;66758;52.078;5.070;2024-03-22T04:08:55;46.13;;;18.15;;
77598;SDS011;66758;52.078;5.070;2024-03-22T04:11:20;46.30;;;18.13;;
77598;SDS011;66758;52.078;5.070;2024-03-22T04:13:45;47.33;;;18.43;;
77598;SDS011;66758;52.078;5.070;2024-03-22T04:16:14;44.28;;;18.38;;
77598;SDS011;66758;52.078;5.070;2024-03-22T04:18:39;47.40;;;18.80;;
77598;SDS011;66758;52.078;5.070;2024-03-22T04:21:04;48.00;;;18.40;;
77598;SDS011;66758;52.078;5.070;2024-03-22T04:23:30;42.47;;;18.50;;
77598;SDS011;66758;52.078;5.070;2024-03-22T04:25:56;51.77;;;19.10;;
77598;SDS011;66758;52.078;5.070;2024-03-22T04:28:23;44.03;;;17.33;;
77598;SDS011;66758;52.078;5.070;2024-03-22T04:33:20;45.70;;;17.90;;
77598;SDS011;66758;52.078;5.070;2024-03-22T04:35:46;51.33;;;18.20;;
77598;SDS011;66758;52.078;5.070;2024-03-22T04:38:11;40.47;;;18.17;;
77598;SDS011;66758;52.078;5.070;2024-03-22T04:40:36;46.47;;;18.30;;
77598;SDS011;66758;52.078;5.070;2024-03-22T04:43:02;41.40;;;17.80;;
77598;SDS011;66758;52.078;5.070;2024-03-22T04:45:27;45.00;;;19.97;;
77598;SDS011;66758;52.078;5.070;2024-03-22T04:47:52;47.00;;;19.50;;
77598;SDS011;66758;52.078;5.070;2024-03-22T04:50:18;46.50;;;19.63;;
77598;SDS011;66758;52.078;5.070;2024-03-22T04:52:43;48.90;;;21.43;;
77598;SDS011;66758;52.078;5.070;2024-03-22T04:55:08;50.73;;;21.53;;
77598;SDS011;66758;52.078;5.070;2024-03-22T04:57:33;44.97;;;20.13;;
77598;SDS011;66758;52.078;5.070;2024-03-22T04:59:59;57.20;;;23.97;;
77598;SDS011;66758;52.078;5.070;2024-03-22T05:02:24;54.75;;;22.65;;
77598;SDS011;66758;52.078;5.070;2024-03-22T05:04:49;57.20;;;22.30;;
77598;SDS011;66758;52.078;5.070;2024-03-22T05:07:15;50.03;;;22.43;;
77598;SDS011;66758;52.078;5.070;2024-03-22T05:09:41;56.55;;;24.00;;
77598;SDS011;66758;52.078;5.070;2024-03-22T05:12:06;54.17;;;23.83;;
77598;SDS011;66758;52.078;5.070;2024-03-22T05:14:31;49.87;;;21.47;;
77598;SDS011;66758;52.078;5.070;2024-03-22T05:16:56;60.23;;;24.87;;
77598;SDS011;66758;52.078;5.070;2024-03-22T05:19:22;62.07;;;23.20;;
77598;SDS011;66758;52.078;5.070;2024-03-22T05:21:47;51.90;;;22.93;;
77598;SDS011;66758;52.078;5.070;2024-03-22T05:24:12;56.57;;;23.77;;
77598;SDS011;66758;52.078;5.070;2024-03-22T05:26:38;55.40;;;23.50;;
77598;SDS011;66758;52.078;5.070;2024-03-22T05:29:03;60.70;;;24.40;;
77598;SDS011;66758;52.078;5.070;2024-03-22T05:31:29;56.60;;;22.92;;
77598;SDS011;66758;52.078;5.070;2024-03-22T05:33:56;52.92;;;22.42;;
77598;SDS011;66758;52.078;5.070;2024-03-22T05:36:21;55.22;;;22.70;;
77598;SDS011;66758;52.078;5.070;2024-03-22T05:38:47;53.83;;;21.83;;
77598;SDS011;66758;52.078;5.070;2024-03-22T05:41:12;53.00;;;23.73;;
77598;SDS011;66758;52.078;5.070;2024-03-22T05:43:38;54.78;;;19.98;;
77598;SDS011;66758;52.078;5.070;2024-03-22T05:46:03;46.53;;;21.70;;
77598;SDS011;66758;52.078;5.070;2024-03-22T05:48:29;52.87;;;22.43;;
77598;SDS011;66758;52.078;5.070;2024-03-22T05:50:54;53.30;;;22.53;;
77598;SDS011;66758;52.078;5.070;2024-03-22T05:53:19;49.10;;;23.07;;
77598;SDS011;66758;52.078;5.070;2024-03-22T05:55:44;56.90;;;23.87;;
77598;SDS011;66758;52.078;5.070;2024-03-22T05:58:10;51.45;;;22.33;;
77598;SDS011;66758;52.078;5.070;2024-03-22T06:00:36;55.13;;;22.53;;
77598;SDS011;66758;52.078;5.070;2024-03-22T06:03:02;57.33;;;23.13;;
77598;SDS011;66758;52.078;5.070;2024-03-22T06:05:27;59.03;;;23.63;;
77598;SDS011;66758;52.078;5.070;2024-03-22T06:07:52;57.47;;;22.80;;
77598;SDS011;66758;52.078;5.070;2024-03-22T06:10:18;55.57;;;23.17;;
77598;SDS011;66758;52.078;5.070;2024-03-22T06:12:43;51.47;;;22.27;;
77598;SDS011;66758;52.078;5.070;2024-03-22T06:15:12;49.63;;;22.58;;
77598;SDS011;66758;52.078;5.070;2024-03-22T06:17:37;51.13;;;22.97;;
77598;SDS011;66758;52.078;5.070;2024-03-22T06:20:02;51.50;;;20.77;;
77598;SDS011;66758;52.078;5.070;2024-03-22T06:22:29;52.17;;;21.70;;
77598;SDS011;66758;52.078;5.070;2024-03-22T06:24:55;44.73;;;20.50;;
77598;SDS011;66758;52.078;5.070;2024-03-22T06:27:20;45.88;;;20.65;;
77598;SDS011;66758;52.078;5.070;2024-03-22T06:29:46;46.03;;;19.93;;
77598;SDS011;66758;52.078;5.070;2024-03-22T06:32:12;46.10;;;19.58;;
77598;SDS011;66758;52.078;5.070;2024-03-22T06:34:37;36.77;;;17.83;;
77598;SDS011;66758;52.078;5.070;2024-03-22T06:37:03;39.40;;;18.33;;
77598;SDS011;66758;52.078;5.070;2024-03-22T06:39:28;39.20;;;17.70;;
77598;SDS011;66758;52.078;5.070;2024-03-22T06:41:54;34.60;;;16.77;;
77598;SDS011;66758;52.078;5.070;2024-03-22T06:44:20;41.13;;;17.83;;
77598;SDS011;66758;52.078;5.070;2024-03-22T06:46:45;40.22;;;18.00;;
77598;SDS011;66758;52.078;5.070;2024-03-22T06:49:10;40.77;;;18.40;;
77598;SDS011;66758;52.078;5.070;2024-03-22T06:51:36;40.67;;;16.73;;
77598;SDS011;66758;52.078;5.070;2024-03-22T06:54:01;38.53;;;18.97;;
77598;SDS011;66758;52.078;5.070;2024-03-22T06:56:27;37.13;;;17.77;;
77598;SDS011;66758;52.078;5.070;2024-03-22T06:58:52;38.47;;;17.20;;
77598;SDS011;66758;52.078;5.070;2024-03-22T07:01:19;41.43;;;18.00;;
77598;SDS011;66758;52.078;5.070;2024-03-22T07:03:45;44.50;;;17.00;;
77598;SDS011;66758;52.078;5.070;2024-03-22T07:06:11;42.17;;;18.37;;
77598;SDS011;66758;52.078;5.070;2024-03-22T07:08:36;36.80;;;16.60;;
77598;SDS011;66758;52.078;5.070;2024-03-22T07:11:04;33.43;;;15.17;;
77598;SDS011;66758;52.078;5.070;2024-03-22T07:13:30;42.03;;;14.93;;
77598;SDS011;66758;52.078;5.070;2024-03-22T07:15:55;34.73;;;15.50;;
77598;SDS011;66758;52.078;5.070;2024-03-22T07:18:22;35.53;;;16.10;;
77598;SDS011;66758;52.078;5.070;2024-03-22T07:20:47;33.27;;;14.83;;
77598;SDS011;66758;52.078;5.070;2024-03-22T07:23:13;37.20;;;15.60;;
77598;SDS011;66758;52.078;5.070;2024-03-22T07:25:38;35.00;;;16.05;;
77598;SDS011;66758;52.078;5.070;2024-03-22T07:28:04;39.13;;;15.10;;
77598;SDS011;66758;52.078;5.070;2024-03-22T07:30:29;39.23;;;16.13;;
77598;SDS011;66758;52.078;5.070;2024-03-22T07:32:55;34.95;;;15.70;;
77598;SDS011;66758;52.078;5.070;2024-03-22T07:35:20;33.70;;;14.90;;
77598;SDS011;66758;52.078;5.070;2024-03-22T07:37:45;35.97;;;15.93;;
77598;SDS011;66758;52.078;5.070;2024-03-22T07:40:11;38.63;;;15.70;;
77598;SDS011;66758;52.078;5.070;2024-03-22T07:42:36;34.53;;;14.87;;
77598;SDS011;66758;52.078;5.070;2024-03-22T07:45:01;36.27;;;15.53;;
77598;SDS011;66758;52.078;5.070;2024-03-22T07:47:27;35.90;;;14.63;;
77598;SDS011;66758;52.078;5.070;2024-03-22T07:49:54;37.43;;;15.70;;
77598;SDS011;66758;52.078;5.070;2024-03-22T07:52:19;32.70;;;15.18;;
77598;SDS011;66758;52.078;5.070;2024-03-22T07:54:44;34.97;;;14.70;;
77598;SDS011;66758;52.078;5.070;2024-03-22T07:57:10;28.20;;;12.63;;
77598;SDS011;66758;52.078;5.070;2024-03-22T07:59:35;32.40;;;13.13;;
77598;SDS011;66758;52.078;5.070;2024-03-22T08:02:01;29.30;;;11.97;;
77598;SDS011;66758;52.078;5.070;2024-03-22T08:04:27;30.60;;;10.98;;
77598;SDS011;66758;52.078;5.070;2024-03-22T08:06:53;28.40;;;10.13;;
77598;SDS011;66758;52.078;5.070;2024-03-22T08:09:18;25.10;;;9.83;;
77598;SDS011;66758;52.078;5.070;2024-03-22T08:11:43;27.37;;;9.70;;
77598;SDS011;66758;52.078;5.070;2024-03-22T08:14:09;25.03;;;9.43;;
77598;SDS011;66758;52.078;5.070;2024-03-22T08:16:34;20.57;;;9.73;;
77598;SDS011;66758;52.078;5.070;2024-03-22T08:18:59;26.23;;;10.93;;
77598;SDS011;66758;52.078;5.070;2024-03-22T08:21:26;26.73;;;11.87;;
77598;SDS011;66758;52.078;5.070;2024-03-22T08:23:51;29.08;;;10.95;;
77598;SDS011;66758;52.078;5.070;2024-03-22T08:26:17;24.80;;;11.40;;
77598;SDS011;66758;52.078;5.070;2024-03-22T08:28:43;26.50;;;11.13;;
77598;SDS011;66758;52.078;5.070;2024-03-22T08:31:09;28.17;;;13.75;;
77598;SDS011;66758;52.078;5.070;2024-03-22T08:33:34;30.37;;;13.50;;
77598;SDS011;66758;52.078;5.070;2024-03-22T08:35:59;29.80;;;12.57;;
77598;SDS011;66758;52.078;5.070;2024-03-22T08:38:26;26.17;;;11.82;;
77598;SDS011;66758;52.078;5.070;2024-03-22T08:40:52;25.83;;;11.60;;
77598;SDS011;66758;52.078;5.070;2024-03-22T08:43:17;27.63;;;11.20;;
77598;SDS011;66758;52.078;5.070;2024-03-22T08:45:42;23.80;;;9.47;;
77598;SDS011;66758;52.078;5.070;2024-03-22T08:48:07;24.57;;;9.77;;
77598;SDS011;66758;52.078;5.070;2024-03-22T08:50:33;23.63;;;9.70;;
77598;SDS011;66758;52.078;5.070;2024-03-22T08:52:58;30.40;;;10.63;;
77598;SDS011;66758;52.078;5.070;2024-03-22T08:55:24;26.08;;;9.52;;
77598;SDS011;66758;52.078;5.070;2024-03-22T08:57:49;22.60;;;8.37;;
77598;SDS011;66758;52.078;5.070;2024-03-22T09:00:14;29.70;;;10.03;;
77598;SDS011;66758;52.078;5.070;2024-03-22T09:02:40;24.63;;;9.70;;
77598;SDS011;66758;52.078;5.070;2024-03-22T09:05:05;28.10;;;10.70;;
77598;SDS011;66758;52.078;5.070;2024-03-22T09:07:31;30.30;;;10.63;;
77598;SDS011;66758;52.078;5.070;2024-03-22T09:09:56;28.37;;;10.27;;
77598;SDS011;66758;52.078;5.070;2024-03-22T09:12:22;28.47;;;10.27;;
77598;SDS011;66758;52.078;5.070;2024-03-22T09:14:47;30.57;;;10.73;;
77598;SDS011;66758;52.078;5.070;2024-03-22T09:17:12;23.77;;;10.23;;
77598;SDS011;66758;52.078;5.070;2024-03-22T09:19:37;24.47;;;10.53;;
77598;SDS011;66758;52.078;5.070;2024-03-22T09:22:03;25.33;;;10.53;;
77598;SDS011;66758;52.078;5.070;2024-03-22T09:24:28;23.88;;;10.63;;
77598;SDS011;66758;52.078;5.070;2024-03-22T09:26:53;27.20;;;10.50;;
77598;SDS011;66758;52.078;5.070;2024-03-22T09:29:19;26.33;;;10.80;;
77598;SDS011;66758;52.078;5.070;2024-03-22T09:31:44;23.67;;;9.80;;
77598;SDS011;66758;52.078;5.070;2024-03-22T09:34:09;23.30;;;10.50;;
77598;SDS011;66758;52.078;5.070;2024-03-22T09:36:35;20.00;;;9.27;;
77598;SDS011;66758;52.078;5.070;2024-03-22T09:39:04;19.48;;;9.23;;
77598;SDS011;66758;52.078;5.070;2024-03-22T09:41:29;24.90;;;11.25;;
77598;SDS011;66758;52.078;5.070;2024-03-22T09:43:57;26.63;;;11.38;;
77598;SDS011;66758;52.078;5.070;2024-03-22T09:46:22;22.38;;;10.32;;
77598;SDS011;66758;52.078;5.070;2024-03-22T09:48:48;22.33;;;10.27;;
77598;SDS011;66758;52.078;5.070;2024-03-22T09:51:17;24.63;;;9.65;;
77598;SDS011;66758;52.078;5.070;2024-03-22T09:53:45;24.20;;;11.13;;
77598;SDS011;66758;52.078;5.070;2024-03-22T09:56:14;23.10;;;11.23;;
77598;SDS011;66758;52.078;5.070;2024-03-22T09:58:40;27.77;;;12.00;;
77598;SDS011;66758;52.078;5.070;2024-03-22T10:01:05;25.33;;;12.98;;
77598;SDS011;66758;52.078;5.070;2024-03-22T10:03:34;23.33;;;12.17;;
77598;SDS011;66758;52.078;5.070;2024-03-22T10:05:59;22.42;;;12.27;;
77598;SDS011;66758;52.078;5.070;2024-03-22T10:08:24;29.23;;;12.90;;
77598;SDS011;66758;52.078;5.070;2024-03-22T10:10:50;25.97;;;12.13;;
77598;SDS011;66758;52.078;5.070;2024-03-22T10:13:15;27.27;;;13.17;;
77598;SDS011;66758;52.078;5.070;2024-03-22T10:15:40;27.73;;;12.93;;
77598;SDS011;66758;52.078;5.070;2024-03-22T10:18:05;30.07;;;14.57;;
77598;SDS011;66758;52.078;5.070;2024-03-22T10:20:31;34.20;;;15.67;;
77598;SDS011;66758;52.078;5.070;2024-03-22T10:22:58;35.65;;;16.67;;
77598;SDS011;66758;52.078;5.070;2024-03-22T10:25:25;22.67;;;13.02;;
77598;SDS011;66758;52.078;5.070;2024-03-22T10:27:50;30.38;;;15.77;;
77598;SDS011;66758;52.078;5.070;2024-03-22T10:30:16;27.63;;;14.60;;
77598;SDS011;66758;52.078;5.070;2024-03-22T10:32:44;31.17;;;14.70;;
77598;SDS011;66758;52.078;5.070;2024-03-22T10:35:11;29.75;;;16.17;;
77598;SDS011;66758;52.078;5.070;2024-03-22T10:37:36;30.23;;;15.05;;
77598;SDS011;66758;52.078;5.070;2024-03-22T10:40:02;27.50;;;13.17;;
77598;SDS011;66758;52.078;5.070;2024-03-22T10:42:34;29.98;;;14.05;;
77598;SDS011;66758;52.078;5.070;2024-03-22T10:45:00;22.67;;;11.60;;
77598;SDS011;66758;52.078;5.070;2024-03-22T10:47:26;25.25;;;12.88;;
77598;SDS011;66758;52.078;5.070;2024-03-22T10:49:54;15.77;;;8.90;;
77598;SDS011;66758;52.078;5.070;2024-03-22T10:52:22;20.88;;;11.60;;
77598;SDS011;66758;52.078;5.070;2024-03-22T10:54:47;21.37;;;10.90;;
77598;SDS011;66758;52.078;5.070;2024-03-22T10:57:13;27.10;;;11.10;;
77598;SDS011;66758;52.078;5.070;2024-03-22T10:59:43;20.30;;;11.98;;
77598;SDS011;66758;52.078;5.070;2024-03-22T11:02:11;25.13;;;11.80;;
77598;SDS011;66758;52.078;5.070;2024-03-22T11:04:37;20.38;;;11.23;;
77598;SDS011;66758;52.078;5.070;2024-03-22T11:07:02;20.67;;;10.93;;
77598;SDS011;66758;52.078;5.070;2024-03-22T11:09:28;24.20;;;10.43;;
77598;SDS011;66758;52.078;5.070;2024-03-22T11:11:55;22.83;;;10.63;;
77598;SDS011;66758;52.078;5.070;2024-03-22T11:14:21;23.52;;;11.25;;
77598;SDS011;66758;52.078;5.070;2024-03-22T11:16:48;22.65;;;11.95;;
77598;SDS011;66758;52.078;5.070;2024-03-22T11:19:13;22.90;;;11.37;;
77598;SDS011;66758;52.078;5.070;2024-03-22T11:21:39;21.97;;;11.47;;
77598;SDS011;66758;52.078;5.070;2024-03-22T11:24:04;20.07;;;8.77;;
77598;SDS011;66758;52.078;5.070;2024-03-22T11:26:30;17.63;;;9.17;;
77598;SDS011;66758;52.078;5.070;2024-03-22T11:28:55;18.10;;;8.75;;
77598;SDS011;66758;52.078;5.070;2024-03-22T11:31:21;15.43;;;7.67;;
77598;SDS011;66758;52.078;5.070;2024-03-22T11:33:51;15.18;;;7.72;;
77598;SDS011;66758;52.078;5.070;2024-03-22T11:36:16;17.70;;;8.27;;
77598;SDS011;66758;52.078;5.070;2024-03-22T11:38:42;16.98;;;9.05;;
77598;SDS011;66758;52.078;5.070;2024-03-22T11:41:08;12.60;;;7.37;;
77598;SDS011;66758;52.078;5.070;2024-03-22T11:43:34;13.32;;;8.10;;
77598;SDS011;66758;52.078;5.070;2024-03-22T11:45:59;15.10;;;7.97;;
77598;SDS011;66758;52.078;5.070;2024-03-22T11:48:26;15.55;;;8.57;;
77598;SDS011;66758;52.078;5.070;2024-03-22T11:50:52;12.33;;;7.30;;
77598;SDS011;66758;52.078;5.070;2024-03-22T11:53:17;15.73;;;6.53;;
77598;SDS011;66758;52.078;5.070;2024-03-22T11:55:43;11.70;;;6.83;;
77598;SDS011;66758;52.078;5.070;2024-03-22T11:58:09;16.33;;;7.63;;
77598;SDS011;66758;52.078;5.070;2024-03-22T12:00:35;18.00;;;8.75;;
77598;SDS011;66758;52.078;5.070;2024-03-22T12:03:00;17.23;;;10.90;;
77598;SDS011;66758;52.078;5.070;2024-03-22T12:05:26;19.33;;;10.47;;
77598;SDS011;66758;52.078;5.070;2024-03-22T12:07:51;16.50;;;9.27;;
77598;SDS011;66758;52.078;5.070;2024-03-22T12:10:17;15.50;;;8.80;;
77598;SDS011;66758;52.078;5.070;2024-03-22T12:12:42;22.35;;;11.43;;
77598;SDS011;66758;52.078;5.070;2024-03-22T12:15:07;20.67;;;11.43;;
77598;SDS011;66758;52.078;5.070;2024-03-22T12:17:33;22.33;;;11.43;;
77598;SDS011;66758;52.078;5.070;2024-03-22T12:20:01;21.10;;;10.63;;
77598;SDS011;66758;52.078;5.070;2024-03-22T12:22:27;19.73;;;10.13;;
77598;SDS011;66758;52.078;5.070;2024-03-22T12:24:53;21.33;;;11.43;;
77598;SDS011;66758;52.078;5.070;2024-03-22T12:27:18;22.47;;;12.40;;
77598;SDS011;66758;52.078;5.070;2024-03-22T12:29:44;24.15;;;12.15;;
77598;SDS011;66758;52.078;5.070;2024-03-22T12:32:10;24.87;;;11.87;;
77598;SDS011;66758;52.078;5.070;2024-03-22T12:34:35;25.23;;;12.37;;
77598;SDS011;66758;52.078;5.070;2024-03-22T12:37:01;27.50;;;12.10;;
77598;SDS011;66758;52.078;5.070;2024-03-22T12:39:26;22.63;;;10.33;;
77598;SDS011;66758;52.078;5.070;2024-03-22T12:41:51;28.50;;;11.47;;
77598;SDS011;66758;52.078;5.070;2024-03-22T12:44:17;23.27;;;10.63;;
77598;SDS011;66758;52.078;5.070;2024-03-22T12:46:42;25.80;;;11.23;;
77598;SDS011;66758;52.078;5.070;2024-03-22T12:49:09;21.80;;;9.50;;
77598;SDS011;66758;52.078;5.070;2024-03-22T12:51:35;20.70;;;8.70;;
77598;SDS011;66758;52.078;5.070;2024-03-22T12:54:00;18.52;;;8.18;;
77598;SDS011;66758;52.078;5.070;2024-03-22T12:56:26;21.27;;;9.37;;
77598;SDS011;66758;52.078;5.070;2024-03-22T12:58:51;23.17;;;9.40;;
77598;SDS011;66758;52.078;5.070;2024-03-22T13:01:16;18.73;;;9.30;;
77598;SDS011;66758;52.078;5.070;2024-03-22T13:03:42;21.70;;;10.83;;
77598;SDS011;66758;52.078;5.070;2024-03-22T13:06:07;26.53;;;10.07;;
77598;SDS011;66758;52.078;5.070;2024-03-22T13:08:32;19.80;;;7.20;;
77598;SDS011;66758;52.078;5.070;2024-03-22T13:10:58;19.95;;;8.18;;
77598;SDS011;66758;52.078;5.070;2024-03-22T13:13:23;24.83;;;9.50;;
77598;SDS011;66758;52.078;5.070;2024-03-22T13:15:48;19.50;;;8.80;;
77598;SDS011;66758;52.078;5.070;2024-03-22T13:18:14;23.97;;;8.73;;
77598;SDS011;66758;52.078;5.070;2024-03-22T13:20:39;20.57;;;7.87;;
77598;SDS011;66758;52.078;5.070;2024-03-22T13:23:04;16.63;;;8.13;;
77598;SDS011;66758;52.078;5.070;2024-03-22T13:25:30;17.07;;;6.63;;
77598;SDS011;66758;52.078;5.070;2024-03-22T13:27:55;18.27;;;6.00;;
77598;SDS011;66758;52.078;5.070;2024-03-22T13:30:20;14.60;;;6.23;;
77598;SDS011;66758;52.078;5.070;2024-03-22T13:32:46;17.05;;;6.78;;
77598;SDS011;66758;52.078;5.070;2024-03-22T13:35:12;20.00;;;7.57;;
77598;SDS011;66758;52.078;5.070;2024-03-22T13:37:38;18.02;;;7.32;;
77598;SDS011;66758;52.078;5.070;2024-03-22T13:40:04;22.33;;;7.30;;
77598;SDS011;66758;52.078;5.070;2024-03-22T13:42:29;27.52;;;8.52;;
77598;SDS011;66758;52.078;5.070;2024-03-22T13:44:55;19.10;;;8.53;;
77598;SDS011;66758;52.078;5.070;2024-03-22T13:47:22;20.65;;;8.65;;
77598;SDS011;66758;52.078;5.070;2024-03-22T13:49:47;22.40;;;8.97;;
77598;SDS011;66758;52.078;5.070;2024-03-22T13:52:12;18.57;;;8.50;;
77598;SDS011;66758;52.078;5.070;2024-03-22T13:54:38;19.98;;;8.52;;
77598;SDS011;66758;52.078;5.070;2024-03-22T13:57:04;18.97;;;8.40;;
77598;SDS011;66758;52.078;5.070;2024-03-22T13:59:29;20.43;;;8.37;;
77598;SDS011;66758;52.078;5.070;2024-03-22T14:01:55;18.07;;;9.17;;
77598;SDS011;66758;52.078;5.070;2024-03-22T14:04:23;20.33;;;8.93;;
77598;SDS011;66758;52.078;5.070;2024-03-22T14:06:52;16.08;;;7.63;;
77598;SDS011;66758;52.078;5.070;2024-03-22T14:09:17;21.50;;;8.45;;
77598;SDS011;66758;52.078;5.070;2024-03-22T14:11:43;16.77;;;7.43;;
77598;SDS011;66758;52.078;5.070;2024-03-22T14:14:10;21.45;;;9.57;;
77598;SDS011;66758;52.078;5.070;2024-03-22T14:16:39;16.83;;;8.30;;